createdAt,value
2019-03-28T00:03:12.651Z,61.50
2019-03-28T00:08:15.288Z,62.67
2019-03-28T00:13:19.283Z,66.70
2019-03-28T00:18:21.803Z,63.10
2019-03-28T00:23:45.850Z,59.97
2019-03-28T00:28:48.473Z,60.97
2019-03-28T00:33:51.196Z,62.07
2019-03-28T00:38:53.852Z,69.73
2019-03-28T00:43:56.697Z,68.87
2019-03-28T00:48:59.264Z,71.40
2019-03-28T00:54:02.352Z,67.77
2019-03-28T00:59:07.941Z,66.03
2019-03-28T01:04:10.834Z,69.47
2019-03-28T01:09:13.410Z,72.73
2019-03-28T01:14:16.272Z,72.17
2019-03-28T01:19:18.915Z,71.17
2019-03-28T01:24:21.773Z,72.40
2019-03-28T01:29:24.411Z,73.43
2019-03-28T01:34:30.312Z,79.63
2019-03-28T01:39:32.942Z,67.10
2019-03-28T01:44:35.501Z,70.80
2019-03-28T01:49:38.056Z,71.73
2019-03-28T01:54:40.782Z,74.20
2019-03-28T01:59:43.499Z,74.23
2019-03-28T02:04:46.235Z,81.20
2019-03-28T02:09:51.557Z,93.07
2019-03-28T02:14:56.171Z,72.30
2019-03-28T02:20:01.808Z,74.63
2019-03-28T02:25:05.454Z,75.43
2019-03-28T02:30:08.742Z,67.90
2019-03-28T02:35:11.949Z,70.97
2019-03-28T02:40:14.586Z,76.67
2019-03-28T02:45:17.512Z,75.40
2019-03-28T02:50:22.141Z,79.23
2019-03-28T02:55:24.789Z,70.97
2019-03-28T03:00:27.408Z,85.20
2019-03-28T03:05:30.268Z,75.70
2019-03-28T03:10:32.844Z,74.60
2019-03-28T03:15:38.555Z,77.53
2019-03-28T03:20:41.514Z,76.87
2019-03-28T03:25:46.437Z,85.17
2019-03-28T03:30:48.998Z,79.63
2019-03-28T03:35:51.965Z,88.43
2019-03-28T03:40:54.897Z,89.27
2019-03-28T03:45:58.390Z,83.70
2019-03-28T03:51:01.071Z,90.87
2019-03-28T03:56:04.010Z,87.03
2019-03-28T04:01:06.908Z,87.23
2019-03-28T04:06:09.827Z,88.43
2019-03-28T04:11:12.485Z,93.30
2019-03-28T04:16:15.190Z,90.17
2019-03-28T04:21:17.937Z,90.13
2019-03-28T04:26:20.698Z,90.20
2019-03-28T04:31:26.108Z,84.77
2019-03-28T04:36:29.024Z,93.03
2019-03-28T04:41:31.657Z,89.20
2019-03-28T04:46:34.557Z,83.03
2019-03-28T04:51:38.852Z,87.87
2019-03-28T04:56:41.544Z,84.13
2019-03-28T05:01:44.108Z,84.40
2019-03-28T05:06:46.704Z,82.37
2019-03-28T05:11:49.308Z,86.30
2019-03-28T05:16:53.089Z,96.63
2019-03-28T05:21:56.403Z,91.73
2019-03-28T05:26:59.221Z,93.13
2019-03-28T05:32:01.849Z,97.27
2019-03-28T05:37:04.821Z,88.93
2019-03-28T05:42:10.164Z,74.70
2019-03-28T05:47:13.021Z,87.67
2019-03-28T05:52:15.588Z,77.20
2019-03-28T05:57:18.609Z,94.43
2019-03-28T06:02:21.346Z,84.13
2019-03-28T06:07:31.094Z,85.70
2019-03-28T06:12:33.666Z,91.80
2019-03-28T06:17:36.338Z,90.23
2019-03-28T06:22:39.567Z,96.17
2019-03-28T06:27:42.402Z,96.03
2019-03-28T06:32:45.258Z,86.07
2019-03-28T06:37:51.580Z,87.17
2019-03-28T06:42:54.540Z,82.53
2019-03-28T06:47:57.114Z,73.40
2019-03-28T06:52:59.693Z,79.53
2019-03-28T06:58:02.339Z,75.77
2019-03-28T07:03:05.257Z,70.37
2019-03-28T07:08:07.863Z,67.80
2019-03-28T07:13:10.628Z,70.90
2019-03-28T07:18:16.019Z,67.13
2019-03-28T07:23:19.006Z,73.03
2019-03-28T07:28:21.833Z,65.47
2019-03-28T07:33:26.947Z,62.33
2019-03-28T07:38:30.436Z,68.33
2019-03-28T07:43:33.246Z,66.90
2019-03-28T07:48:35.842Z,66.87
2019-03-28T07:53:38.878Z,58.83
2019-03-28T07:58:44.146Z,27.03
2019-03-28T08:03:47.989Z,26.80
2019-03-28T08:08:50.577Z,31.13
2019-03-28T08:13:56.404Z,32.77
2019-03-28T08:18:59.168Z,29.97
2019-03-28T08:24:01.987Z,26.43
2019-03-28T08:29:04.768Z,33.27
2019-03-28T08:34:07.789Z,32.87
2019-03-28T08:39:10.436Z,42.47
2019-03-28T08:44:13.013Z,30.53
2019-03-28T08:49:18.435Z,46.40
2019-03-28T08:54:22.343Z,41.93
2019-03-28T08:59:24.958Z,36.67
2019-03-28T09:04:27.653Z,51.73
2019-03-28T09:09:32.738Z,36.65
2019-03-28T09:14:37.081Z,40.30
2019-03-28T09:19:42.660Z,32.40
2019-03-28T09:24:45.454Z,41.70
2019-03-28T09:29:48.092Z,35.53
2019-03-28T09:34:50.985Z,40.40
2019-03-28T09:39:54.281Z,35.10
2019-03-28T09:45:00.014Z,28.80
2019-03-28T09:50:02.597Z,29.20
2019-03-28T09:55:05.659Z,37.10
2019-03-28T10:00:09.965Z,36.53
2019-03-28T10:05:14.329Z,33.13
2019-03-28T10:10:18.710Z,38.63
2019-03-28T10:15:21.589Z,31.97
2019-03-28T10:20:24.310Z,29.63
2019-03-28T10:25:27.128Z,32.83
2019-03-28T10:30:44.961Z,27.27
2019-03-28T10:35:50.470Z,31.70
2019-03-28T10:40:53.052Z,34.70
2019-03-28T10:45:58.999Z,29.80
2019-03-28T10:51:02.587Z,33.80
2019-03-28T10:56:05.686Z,36.83
2019-03-28T11:01:08.402Z,30.37
2019-03-28T11:06:11.209Z,37.20
2019-03-28T11:11:13.786Z,25.43
2019-03-28T11:16:19.517Z,28.10
2019-03-28T11:21:25.229Z,23.60
2019-03-28T11:26:31.478Z,26.60
2019-03-28T11:31:45.528Z,25.40
2019-03-28T11:36:39.291Z,23.37
2019-03-28T11:41:41.923Z,19.00
2019-03-28T11:46:46.664Z,28.67
2019-03-28T11:51:50.306Z,31.90
2019-03-28T11:57:00.768Z,30.83
2019-03-28T12:02:19.077Z,32.10
2019-03-28T12:07:09.509Z,33.07
2019-03-28T12:12:14.726Z,36.87
2019-03-28T12:17:24.083Z,36.43
2019-03-28T12:22:26.680Z,34.93
2019-03-28T12:27:30.764Z,37.60
2019-03-28T12:32:33.277Z,35.23
2019-03-28T12:37:36.679Z,38.07
2019-03-28T12:42:39.792Z,37.37
2019-03-28T12:47:43.213Z,42.77
2019-03-28T12:52:46.186Z,53.50
2019-03-28T12:57:51.597Z,49.10
2019-03-28T13:02:54.743Z,50.10
2019-03-28T13:07:57.338Z,51.13
2019-03-28T13:13:01.221Z,55.33
2019-03-28T13:18:06.606Z,59.03
2019-03-28T13:23:09.223Z,55.93
2019-03-28T13:28:11.792Z,64.53
2019-03-28T13:33:14.597Z,58.63
2019-03-28T13:38:17.173Z,56.13
2019-03-28T13:43:19.766Z,51.87
2019-03-28T13:48:25.024Z,59.97
2019-03-28T13:53:39.373Z,54.90
2019-03-28T13:58:34.897Z,62.03
2019-03-28T14:03:41.378Z,64.13
2019-03-28T14:08:45.524Z,64.27
2019-03-28T14:13:48.247Z,53.80
2019-03-28T14:18:50.831Z,52.10
2019-03-28T14:23:53.873Z,56.10
2019-03-28T14:28:56.478Z,47.90
2019-03-28T14:33:59.330Z,59.40
2019-03-28T14:39:01.939Z,48.23
2019-03-28T14:44:04.592Z,43.47
2019-03-28T14:49:07.281Z,45.00
2019-03-28T14:54:13.119Z,48.60
2019-03-28T14:59:31.396Z,39.90
2019-03-28T15:04:23.422Z,39.33
2019-03-28T15:09:25.992Z,38.23
2019-03-28T15:14:28.624Z,39.33
2019-03-28T15:19:31.277Z,39.43
2019-03-28T15:24:36.592Z,33.87
2019-03-28T15:29:39.168Z,27.10
2019-03-28T15:34:43.049Z,35.97
2019-03-28T15:39:49.305Z,26.27
2019-03-28T15:44:54.777Z,33.90
2019-03-28T15:49:57.431Z,35.23
2019-03-28T15:55:02.255Z,30.40
2019-03-28T16:00:08.947Z,29.00
2019-03-28T16:05:13.814Z,32.60
2019-03-28T16:10:19.073Z,32.33
2019-03-28T16:15:22.866Z,35.70
2019-03-28T16:20:25.623Z,31.77
2019-03-28T16:25:28.599Z,29.33
2019-03-28T16:30:37.584Z,28.90
2019-03-28T16:35:40.275Z,24.47
2019-03-28T16:40:46.490Z,26.93
2019-03-28T16:45:51.790Z,32.17
2019-03-28T16:50:54.758Z,27.63
2019-03-28T16:55:57.480Z,27.20
2019-03-28T17:01:01.529Z,27.23
2019-03-28T17:06:05.679Z,23.37
2019-03-28T17:11:08.260Z,24.23
2019-03-28T17:16:11.542Z,26.17
2019-03-28T17:21:14.366Z,27.67
2019-03-28T17:26:19.735Z,27.33
2019-03-28T17:31:25.111Z,24.70
2019-03-28T17:36:30.047Z,31.83
2019-03-28T17:41:32.601Z,24.60
2019-03-28T17:46:35.332Z,17.70
2019-03-28T17:51:40.515Z,20.67
2019-03-28T17:56:42.654Z,23.60
2019-03-28T18:01:45.318Z,22.33
2019-03-28T18:06:48.292Z,26.43
2019-03-28T18:11:51.006Z,25.73
2019-03-28T18:16:59.964Z,24.27
2019-03-28T18:22:04.005Z,27.23
2019-03-28T18:27:07.139Z,25.80
2019-03-28T18:32:09.690Z,24.07
2019-03-28T18:37:12.340Z,28.80
2019-03-28T18:42:16.465Z,26.37
2019-03-28T18:47:21.856Z,27.73
2019-03-28T18:52:26.420Z,34.27
2019-03-28T18:57:32.488Z,30.70
2019-03-28T19:02:35.120Z,30.07
2019-03-28T19:07:37.777Z,33.00
2019-03-28T19:12:40.327Z,28.83
2019-03-28T19:17:42.906Z,28.93
2019-03-28T19:22:50.261Z,27.53
2019-03-28T19:27:54.079Z,27.57
2019-03-28T19:32:57.887Z,31.20
2019-03-28T19:38:03.792Z,31.17
2019-03-28T19:43:19.711Z,31.07
2019-03-28T19:48:12.651Z,31.67
2019-03-28T19:53:15.266Z,28.83
2019-03-28T19:58:17.850Z,25.00
2019-03-28T20:03:23.171Z,29.87
2019-03-28T20:08:26.258Z,33.07
2019-03-28T20:13:31.058Z,29.87
2019-03-28T20:18:35.898Z,28.37
2019-03-28T20:23:40.876Z,39.40
2019-03-28T20:28:43.509Z,35.33
2019-03-28T20:33:48.872Z,36.33
2019-03-28T20:39:03.764Z,30.67
2019-03-28T20:43:58.705Z,36.63
2019-03-28T20:49:01.255Z,38.67
2019-03-28T20:54:07.791Z,36.87
2019-03-28T20:59:12.005Z,35.50
2019-03-28T21:04:16.090Z,38.40
2019-03-28T21:09:20.456Z,45.40
2019-03-28T21:14:23.209Z,41.40
2019-03-28T21:19:28.353Z,40.57
2019-03-28T21:24:31.197Z,47.20
2019-03-28T21:29:34.143Z,51.43
2019-03-28T21:34:36.732Z,44.03
2019-03-28T21:39:41.886Z,45.13
2019-03-28T21:44:48.766Z,50.60
2019-03-28T21:49:52.105Z,46.43
2019-03-28T21:54:54.699Z,54.13
2019-03-28T21:59:57.249Z,53.33
2019-03-28T22:05:00.988Z,53.43
2019-03-28T22:10:08.681Z,47.77
2019-03-28T22:15:15.920Z,49.43
2019-03-28T22:20:18.527Z,51.33
2019-03-28T22:25:23.111Z,54.97
2019-03-28T22:30:25.760Z,58.05
2019-03-28T22:35:28.354Z,54.07
2019-03-28T22:40:31.030Z,46.30
2019-03-28T22:45:33.811Z,59.70
2019-03-28T22:50:38.611Z,52.40
2019-03-28T22:55:41.160Z,51.77
2019-03-28T23:00:45.548Z,54.33
2019-03-28T23:05:48.210Z,58.10
2019-03-28T23:10:50.758Z,57.47
2019-03-28T23:16:01.352Z,58.47
2019-03-28T23:21:03.922Z,52.83
2019-03-28T23:26:06.571Z,67.53
2019-03-28T23:31:12.140Z,56.17
2019-03-28T23:36:14.777Z,50.53
2019-03-28T23:41:19.891Z,50.73
2019-03-28T23:46:22.782Z,57.90
2019-03-28T23:51:25.465Z,62.73
2019-03-28T23:56:29.230Z,49.33
